Time;durP1;ratioP1;P1;durP2;ratioP2;P2;SDS_P1;SDS_P2;PMS_P1;PMS_P2;Temp;Humidity;BMP_temperature;BMP_pressure;BME280_temperature;BME280_humidity;BME280_pressure;Samples;Min_cycle;Max_cycle;Signal;HPM_P1;HPM_P2
2022/12/08 00:01:48;;;;;;;20.80;9.80;;;;;;;1.95;86.44;98302.81;87089;1289;22627;-78
2022/12/08 00:03:50;;;;;;;18.80;9.20;;;;;;;1.94;86.46;98301.11;87109;1310;25318;-79
2022/12/08 00:10:30;;;;;;;20.50;9.60;;;;;;;1.97;86.36;98306.40;86837;1313;23720;-78
2022/12/08 00:12:31;;;;;;;13.60;9.00;;;;;;;1.88;86.39;98290.00;86694;1312;98249;-79
2022/12/08 00:14:37;;;;;;;15.60;10.00;;;;;;;1.97;86.11;98304.66;86917;1312;24182;-78
2022/12/08 00:16:38;;;;;;;11.90;8.50;;;;;;;1.97;86.33;98302.24;87332;1303;23811;-77
2022/12/08 00:18:39;;;;;;;14.00;8.90;;;;;;;1.98;86.66;98305.17;86823;1308;98166;-78
2022/12/08 00:20:40;;;;;;;10.00;8.10;;;;;;;1.97;86.51;98303.45;86864;1304;22836;-77
2022/12/08 00:22:41;;;;;;;14.90;9.10;;;;;;;1.98;86.41;98308.98;86831;1308;23854;-78
2022/12/08 00:24:46;;;;;;;14.80;8.60;;;;;;;1.92;86.12;98299.59;86869;1289;98091;-77
2022/12/08 00:26:47;;;;;;;11.60;8.00;;;;;;;1.98;86.24;98307.94;86946;1305;22638;-78
2022/12/08 00:28:49;;;;;;;17.60;7.60;;;;;;;1.96;86.21;98305.55;86866;1311;23396;-78
2022/12/08 00:30:49;;;;;;;;;;;;;;;1.95;86.32;98305.06;86978;1314;98452;-77
2022/12/08 00:32:50;;;;;;;25.40;8.60;;;;;;;1.93;86.27;98311.36;86882;1311;22592;-76
2022/12/08 00:34:51;;;;;;;11.50;8.10;;;;;;;1.92;86.30;98315.38;86746;1313;22590;-77
2022/12/08 00:36:52;;;;;;;14.90;8.40;;;;;;;1.87;86.36;98313.91;87107;1305;99027;-78
2022/12/08 00:38:53;;;;;;;12.20;7.70;;;;;;;1.90;86.39;98315.59;87099;1314;22651;-79
2022/12/08 00:40:54;;;;;;;13.20;7.70;;;;;;;1.88;85.97;98315.79;86735;1313;22909;-78
2022/12/08 00:42:55;;;;;;;12.80;8.00;;;;;;;1.89;86.04;98317.52;87073;1314;97927;-78
2022/12/08 00:44:56;;;;;;;9.70;7.60;;;;;;;1.88;86.35;98314.60;87238;1311;22477;-77
2022/12/08 00:46:57;;;;;;;11.70;7.70;;;;;;;1.88;86.31;98315.46;87133;1310;98183;-78
2022/12/08 00:48:58;;;;;;;15.30;8.00;;;;;;;1.85;86.11;98316.55;86828;1296;22872;-77
2022/12/08 00:51:00;;;;;;;13.50;7.60;;;;;;;1.86;86.37;98321.55;86990;1312;22517;-77
2022/12/08 00:53:01;;;;;;;8.70;6.80;;;;;;;1.86;86.06;98320.67;86928;1306;98245;-78
2022/12/08 00:55:03;;;;;;;9.60;8.40;;;;;;;1.86;86.02;98317.39;87266;1305;22891;-77
2022/12/08 00:57:04;;;;;;;7.80;6.50;;;;;;;1.87;85.88;98320.67;87469;1306;22561;-78
2022/12/08 00:59:07;;;;;;;12.60;7.90;;;;;;;1.87;86.03;98320.33;87971;1311;98465;-80
2022/12/08 01:01:12;;;;;;;11.90;7.30;;;;;;;1.87;86.16;98320.49;87730;1313;22255;-78
2022/12/08 01:03:13;;;;;;;14.10;7.80;;;;;;;1.90;86.10;98324.42;87216;1295;22512;-77
2022/12/08 01:05:14;;;;;;;11.40;7.80;;;;;;;1.90;86.24;98324.75;87104;1296;98243;-77
2022/12/08 01:07:16;;;;;;;13.50;7.70;;;;;;;1.91;86.42;98329.77;87103;1290;22519;-77
2022/12/08 01:09:17;;;;;;;;;;;;;;;1.91;86.23;98336.88;87001;1298;22503;-77
2022/12/08 01:11:18;;;;;;;8.70;7.30;;;;;;;1.90;86.52;98335.84;87066;1311;84909;-78
2022/12/08 01:13:19;;;;;;;9.70;7.70;;;;;;;1.90;86.17;98338.10;87172;1290;22666;-78
2022/12/08 01:15:21;;;;;;;10.10;7.70;;;;;;;1.89;86.10;98341.25;87282;1303;22504;-78
2022/12/08 01:17:22;;;;;;;10.90;6.90;;;;;;;1.87;86.36;98343.86;86838;1296;98258;-78
2022/12/08 01:19:23;;;;;;;12.20;8.00;;;;;;;1.88;86.25;98342.99;87244;1311;25276;-78
2022/12/08 01:21:26;;;;;;;13.60;8.00;;;;;;;1.86;86.40;98344.77;87073;1289;22532;-78
2022/12/08 01:23:27;;;;;;;8.80;7.90;;;;;;;1.85;86.47;98340.61;86978;1308;99421;-78
2022/12/08 01:25:28;;;;;;;;;;;;;;;1.85;86.07;98335.08;87055;1318;22601;-78
2022/12/08 01:27:29;;;;;;;11.90;7.70;;;;;;;1.83;86.39;98340.33;87228;1296;25356;-78
2022/12/08 01:29:30;;;;;;;10.90;8.20;;;;;;;1.82;86.37;98335.33;86651;1285;98795;-77
2022/12/08 01:31:31;;;;;;;10.90;8.20;;;;;;;1.82;86.50;98333.59;86785;1312;25968;-77
2022/12/08 01:33:32;;;;;;;9.20;8.10;;;;;;;1.83;86.37;98332.38;86876;1282;22538;-79
2022/12/08 01:35:33;;;;;;;14.10;7.70;;;;;;;1.82;86.43;98330.15;86833;1311;99015;-77
2022/12/08 01:37:34;;;;;;;16.40;9.10;;;;;;;1.81;86.55;98328.58;86942;1311;22530;-78
2022/12/08 01:39:35;;;;;;;11.40;8.40;;;;;;;1.79;86.47;98327.60;86958;1297;22568;-79
2022/12/08 01:41:37;;;;;;;13.00;8.80;;;;;;;1.78;86.36;98329.52;87109;1314;99695;-79
2022/12/08 01:44:08;;;;;;;12.10;8.20;;;;;;;1.78;86.41;98332.48;87220;1311;22500;-78
2022/12/08 01:46:09;;;;;;;13.00;9.30;;;;;;;1.76;86.50;98333.75;86962;1315;24284;-78
2022/12/08 01:48:21;;;;;;;12.60;9.70;;;;;;;1.76;86.66;98334.79;86430;1312;98244;-79
2022/12/08 01:50:22;;;;;;;11.40;8.20;;;;;;;1.74;86.39;98333.27;86722;1308;22489;-78
2022/12/08 01:52:34;;;;;;;11.00;9.20;;;;;;;1.75;86.62;98333.93;86694;1310;22609;-78
2022/12/08 01:54:41;;;;;;;12.00;8.20;;;;;;;1.76;86.47;98330.29;86782;1317;98330;-78
2022/12/08 01:57:09;;;;;;;12.70;9.20;;;;;;;1.76;86.51;98327.34;86836;1302;22428;-79
2022/12/08 01:59:11;;;;;;;11.20;8.80;;;;;;;1.75;86.58;98325.62;86650;1320;98248;-78
2022/12/08 02:01:13;;;;;;;12.20;8.90;;;;;;;1.76;86.56;98325.95;86650;1318;25689;-78
2022/12/08 02:03:42;;;;;;;14.70;9.50;;;;;;;1.76;86.80;98328.90;86973;1317;22591;-79
2022/12/08 02:05:45;;;;;;;13.00;9.00;;;;;;;1.76;86.69;98332.69;86543;1315;98228;-78
2022/12/08 02:07:48;;;;;;;18.30;9.10;;;;;;;1.73;86.59;98329.30;86663;1298;22484;-78
2022/12/08 02:09:49;;;;;;;12.20;9.20;;;;;;;1.71;86.49;98332.13;86326;1310;195502;-78
2022/12/08 02:11:55;;;;;;;22.80;9.90;;;;;;;1.67;86.85;98336.71;86390;1317;98563;-78
2022/12/08 02:13:59;;;;;;;14.00;9.00;;;;;;;1.65;86.86;98336.25;86404;1317;23846;-78
2022/12/08 02:16:43;;;;;;;12.40;9.40;;;;;;;1.62;86.27;98334.05;86478;1317;24371;-79
2022/12/08 02:18:46;;;;;;;17.20;9.80;;;;;;;1.59;86.24;98336.04;86787;1317;99489;-77
2022/12/08 02:21:11;;;;;;;15.00;10.90;;;;;;;1.55;86.31;98333.70;86434;1317;22524;-77
2022/12/08 02:23:40;;;;;;;14.30;9.50;;;;;;;1.49;86.41;98332.79;86665;1314;98999;-78
2022/12/08 02:25:50;;;;;;;14.00;9.70;;;;;;;1.44;86.23;98332.54;87162;1314;22543;-78
2022/12/08 02:28:39;;;;;;;13.70;9.50;;;;;;;1.40;86.58;98337.48;87235;1309;22519;-79
2022/12/08 02:30:52;;;;;;;14.80;10.10;;;;;;;1.33;86.15;98339.88;87193;1302;98092;-78
2022/12/08 02:33:25;;;;;;;15.20;10.20;;;;;;;1.30;86.74;98344.10;86980;1306;22635;-78
2022/12/08 02:36:03;;;;;;;12.40;9.40;;;;;;;1.27;86.58;98345.02;86825;1305;98813;-78
2022/12/08 02:38:04;;;;;;;12.50;9.80;;;;;;;1.22;86.28;98347.39;87236;1287;22652;-77
2022/12/08 02:40:24;;;;;;;18.50;10.10;;;;;;;1.18;86.52;98345.55;87152;1292;22775;-78
2022/12/08 02:42:28;;;;;;;9.20;8.20;;;;;;;1.15;86.57;98344.05;86899;1294;98274;-78
2022/12/08 02:44:44;;;;;;;12.60;9.40;;;;;;;1.11;86.34;98346.73;87022;1312;22567;-78
2022/12/08 02:46:57;;;;;;;10.40;9.10;;;;;;;1.06;86.53;98344.41;86911;1311;22667;-78
2022/12/08 02:48:59;;;;;;;13.10;9.60;;;;;;;1.01;86.55;98339.66;87171;1311;98134;-78
2022/12/08 02:51:01;;;;;;;16.40;10.80;;;;;;;0.97;86.47;98344.23;87144;1298;22516;-78
2022/12/08 02:53:02;;;;;;;10.20;9.10;;;;;;;0.90;86.42;98339.54;87190;1311;100207;-78
2022/12/08 02:55:27;;;;;;;12.30;9.40;;;;;;;0.88;86.57;98344.06;87032;1314;23086;-79
2022/12/08 02:57:42;;;;;;;9.70;8.30;;;;;;;0.87;86.72;98342.54;87238;1312;22745;-79
2022/12/08 03:00:05;;;;;;;14.30;9.60;;;;;;;0.87;86.68;98346.00;87130;1287;99081;-79
2022/12/08 03:02:20;;;;;;;9.40;8.20;;;;;;;0.88;86.65;98347.53;87250;1284;22534;-77
2022/12/08 03:04:51;;;;;;;10.70;8.30;;;;;;;0.88;86.77;98352.73;87189;1295;22746;-77
2022/12/08 03:07:07;;;;;;;13.50;8.90;;;;;;;0.89;86.67;98352.88;87123;1296;98254;-79
2022/12/08 03:09:23;;;;;;;11.20;8.50;;;;;;;0.89;86.52;98348.90;87075;1310;22511;-77
2022/12/08 03:11:34;;;;;;;10.60;8.90;;;;;;;0.88;86.85;98349.10;86956;1285;98087;-77
2022/12/08 03:13:43;;;;;;;9.20;8.20;;;;;;;0.86;86.80;98349.30;87102;1308;23262;-78
2022/12/08 03:15:49;;;;;;;9.40;8.10;;;;;;;0.84;86.73;98347.08;86886;1320;22620;-77
2022/12/08 03:17:54;;;;;;;8.80;8.00;;;;;;;0.81;86.88;98345.91;86876;1296;98988;-78
2022/12/08 03:19:57;;;;;;;8.40;7.40;;;;;;;0.81;86.84;98341.95;87111;1314;22424;-78
2022/12/08 03:22:03;;;;;;;8.50;7.40;;;;;;;0.80;86.64;98341.64;87138;1313;22520;-79
2022/12/08 03:24:06;;;;;;;8.80;7.30;;;;;;;0.77;86.59;98340.48;87015;1313;97904;-78
2022/12/08 03:26:12;;;;;;;10.60;7.60;;;;;;;0.73;86.69;98342.61;87192;1312;22600;-78
2022/12/08 03:28:13;;;;;;;8.40;7.30;;;;;;;0.71;86.51;98342.65;87026;1312;22518;-78
2022/12/08 03:30:14;;;;;;;9.60;7.60;;;;;;;0.70;86.71;98343.36;87233;1296;99621;-78
2022/12/08 03:32:51;;;;;;;14.70;7.70;;;;;;;0.68;86.76;98339.09;87003;1290;24290;-76
2022/12/08 03:34:55;;;;;;;10.00;7.40;;;;;;;0.66;86.69;98340.31;87242;1312;21937;-78
2022/12/08 03:36:56;;;;;;;8.70;7.20;;;;;;;0.66;86.55;98337.58;86933;1306;98106;-78
2022/12/08 03:38:57;;;;;;;9.30;7.40;;;;;;;0.64;86.70;98334.16;87261;1309;22799;-78
2022/12/08 03:41:17;;;;;;;10.80;7.40;;;;;;;0.60;86.64;98338.73;87226;1287;22518;-79
2022/12/08 03:43:18;;;;;;;7.80;6.90;;;;;;;0.57;86.51;98333.75;87105;1298;22920;-78
2022/12/08 03:45:20;;;;;;;8.90;7.40;;;;;;;0.56;86.69;98338.29;87215;1310;23745;-78
2022/12/08 03:47:21;;;;;;;7.80;7.00;;;;;;;0.54;86.50;98338.83;87000;1302;97957;-79
2022/12/08 03:49:22;;;;;;;8.90;7.80;;;;;;;0.53;86.71;98331.40;87168;1311;22236;-78
2022/12/08 03:51:23;;;;;;;8.20;7.40;;;;;;;0.52;86.57;98332.48;87141;1302;22582;-77
2022/12/08 03:53:24;;;;;;;9.50;7.90;;;;;;;0.49;86.73;98336.64;86751;1314;99081;-78
2022/12/08 03:55:25;;;;;;;8.60;7.00;;;;;;;0.50;86.68;98331.63;87165;1305;22195;-79
2022/12/08 03:57:26;;;;;;;9.30;7.60;;;;;;;0.49;86.58;98336.30;87046;1312;26624;-78
2022/12/08 03:59:27;;;;;;;9.20;8.30;;;;;;;0.50;86.94;98331.80;87051;1297;99209;-79
2022/12/08 04:01:28;;;;;;;9.20;8.20;;;;;;;0.52;86.83;98332.48;87030;1313;22550;-78
2022/12/08 04:03:29;;;;;;;12.70;7.30;;;;;;;0.52;86.84;98331.77;87052;1288;25612;-77
2022/12/08 04:05:30;;;;;;;9.70;7.50;;;;;;;0.53;86.92;98331.91;87162;1286;98220;-78
2022/12/08 04:07:31;;;;;;;;;;;;;;;0.53;86.69;98331.40;87119;1311;22771;-78
2022/12/08 04:09:32;;;;;;;7.50;6.70;;;;;;;0.53;87.08;98333.30;87154;1312;22578;-78
2022/12/08 04:11:33;;;;;;;8.40;7.10;;;;;;;0.51;86.72;98335.25;86676;1311;98508;-77
2022/12/08 04:13:40;;;;;;;9.00;8.10;;;;;;;0.49;86.78;98332.69;86731;1308;22528;-78
2022/12/08 04:15:45;;;;;;;14.40;8.00;;;;;;;0.48;86.81;98330.98;87270;1310;22445;-77
2022/12/08 04:17:46;;;;;;;8.70;7.60;;;;;;;0.45;86.88;98329.98;87080;1311;98144;-78
2022/12/08 04:19:47;;;;;;;10.00;7.80;;;;;;;0.45;86.76;98328.60;86902;1314;22555;-78
2022/12/08 04:21:48;;;;;;;8.30;7.20;;;;;;;0.45;86.93;98324.46;87205;1310;22536;-77
2022/12/08 04:23:49;;;;;;;8.70;7.50;;;;;;;0.42;86.74;98323.84;86905;1289;98715;-78
2022/12/08 04:25:51;;;;;;;14.10;7.20;;;;;;;0.39;86.92;98324.75;87134;1296;22524;-78
2022/12/08 04:27:52;;;;;;;9.80;7.70;;;;;;;0.38;86.79;98328.39;86822;1312;22525;-78
2022/12/08 04:29:53;;;;;;;11.20;7.90;;;;;;;0.37;87.02;98329.10;87039;1304;98097;-77
2022/12/08 04:31:54;;;;;;;10.50;8.80;;;;;;;0.35;86.99;98330.35;87122;1313;25387;-78
2022/12/08 04:33:55;;;;;;;9.00;8.20;;;;;;;0.36;86.75;98329.81;86819;1314;25420;-78
2022/12/08 04:35:56;;;;;;;9.90;7.60;;;;;;;0.34;86.74;98327.77;86965;1314;97888;-77
2022/12/08 04:37:57;;;;;;;10.20;8.20;;;;;;;0.33;86.74;98324.85;86983;1314;23068;-78
2022/12/08 04:39:58;;;;;;;9.20;8.10;;;;;;;0.33;86.94;98326.75;86937;1297;22545;-78
2022/12/08 04:42:02;;;;;;;11.40;8.60;;;;;;;0.33;86.89;98328.31;87079;1311;98102;-78
2022/12/08 04:44:03;;;;;;;9.40;7.90;;;;;;;0.32;86.83;98326.41;87110;1308;22504;-78
2022/12/08 04:46:07;;;;;;;14.20;9.10;;;;;;;0.32;86.81;98325.02;87017;1314;22536;-78
2022/12/08 04:48:12;;;;;;;16.40;8.10;;;;;;;0.34;86.92;98327.42;86927;1290;98195;-78
2022/12/08 04:50:13;;;;;;;9.30;7.60;;;;;;;0.35;86.79;98329.14;87207;1311;23973;-78
2022/12/08 04:52:14;;;;;;;10.30;8.40;;;;;;;0.35;86.88;98324.13;87157;1314;23035;-78
2022/12/08 04:54:15;;;;;;;10.60;8.70;;;;;;;0.34;86.87;98321.89;86973;1304;98093;-79
2022/12/08 04:56:18;;;;;;;9.20;8.40;;;;;;;0.34;86.82;98322.23;87053;1314;22565;-78
2022/12/08 04:58:19;;;;;;;9.80;8.70;;;;;;;0.34;86.89;98320.50;87037;1290;23559;-78
2022/12/08 05:00:20;;;;;;;12.40;8.70;;;;;;;0.32;86.74;98318.98;87109;1311;98032;-79
2022/12/08 05:02:21;;;;;;;8.80;7.40;;;;;;;0.32;86.86;98316.23;87073;1314;22447;-77
2022/12/08 05:04:22;;;;;;;10.80;8.90;;;;;;;0.31;86.75;98317.10;87171;1287;23390;-78
2022/12/08 05:06:24;;;;;;;9.10;8.20;;;;;;;0.31;86.95;98318.14;87107;1309;98110;-78
2022/12/08 05:08:25;;;;;;;10.00;8.90;;;;;;;0.32;87.01;98323.33;87222;1311;22509;-78
2022/12/08 05:10:26;;;;;;;14.00;9.20;;;;;;;0.32;86.77;98322.60;86802;1309;22677;-78
2022/12/08 05:12:27;;;;;;;13.00;9.90;;;;;;;0.33;86.82;98318.10;87084;1303;98750;-78
2022/12/08 05:14:28;;;;;;;15.00;8.90;;;;;;;0.32;86.60;98315.88;87061;1306;22987;-78
2022/12/08 05:16:29;;;;;;;9.50;8.50;;;;;;;0.31;86.69;98315.55;87162;1311;25419;-77
2022/12/08 05:18:30;;;;;;;15.10;8.90;;;;;;;0.30;86.69;98313.67;87208;1310;98210;-78
2022/12/08 05:20:31;;;;;;;9.60;8.30;;;;;;;0.28;86.84;98312.31;87016;1302;22626;-79
2022/12/08 05:22:32;;;;;;;10.00;8.00;;;;;;;0.27;86.69;98314.75;87239;1289;22546;-77
2022/12/08 05:24:33;;;;;;;8.50;7.50;;;;;;;0.26;86.79;98318.06;86890;1305;98087;-78
2022/12/08 05:26:34;;;;;;;9.90;7.70;;;;;;;0.25;86.76;98318.92;87103;1308;23812;-78
2022/12/08 05:28:35;;;;;;;11.50;9.30;;;;;;;0.26;86.76;98321.52;87134;1314;25417;-78
2022/12/08 05:30:36;;;;;;;11.40;8.50;;;;;;;0.28;86.86;98321.65;86926;1314;99480;-78
2022/12/08 05:32:37;;;;;;;17.40;9.70;;;;;;;0.29;86.76;98324.73;87183;1311;22678;-80
2022/12/08 05:34:38;;;;;;;11.30;9.40;;;;;;;0.30;86.98;98324.73;87141;1306;22540;-78
2022/12/08 05:36:39;;;;;;;11.20;9.80;;;;;;;0.30;87.03;98325.09;87054;1314;98905;-78
2022/12/08 05:38:41;;;;;;;12.10;9.50;;;;;;;0.28;86.82;98325.10;87140;1314;22276;-79
2022/12/08 05:40:42;;;;;;;11.10;9.50;;;;;;;0.31;87.15;98325.75;87265;1312;22488;-79
2022/12/08 05:42:43;;;;;;;11.30;9.50;;;;;;;0.32;86.87;98326.23;87171;1304;98915;-78
2022/12/08 05:44:44;;;;;;;12.10;10.10;;;;;;;0.32;87.00;98326.60;87142;1311;22493;-79
2022/12/08 05:46:45;;;;;;;21.90;15.60;;;;;;;0.33;87.00;98327.27;87061;1290;22540;-78
2022/12/08 05:48:46;;;;;;;21.70;15.70;;;;;;;0.34;86.90;98325.16;87062;1311;98256;-79
2022/12/08 05:50:48;;;;;;;21.70;16.80;;;;;;;0.36;86.95;98328.27;87088;1296;22472;-79
2022/12/08 05:52:49;;;;;;;29.50;19.40;;;;;;;0.37;86.89;98328.41;87173;1311;22434;-78
2022/12/08 05:54:50;;;;;;;45.90;24.20;;;;;;;0.37;86.97;98329.61;86871;1296;98956;-77
2022/12/08 05:56:51;;;;;;;42.40;22.90;;;;;;;0.38;87.19;98329.94;87082;1312;22510;-78
2022/12/08 05:58:52;;;;;;;38.30;19.60;;;;;;;0.39;86.86;98323.02;87084;1312;22486;-77
2022/12/08 06:00:53;;;;;;;28.00;18.70;;;;;;;0.39;87.06;98327.50;86722;1314;99663;-78
2022/12/08 06:02:54;;;;;;;29.40;18.70;;;;;;;0.39;87.22;98330.10;86766;1311;22568;-78
2022/12/08 06:04:55;;;;;;;33.30;19.40;;;;;;;0.40;87.07;98333.73;86666;1299;23788;-79
2022/12/08 06:06:56;;;;;;;38.00;22.90;;;;;;;0.39;87.07;98331.84;86694;1285;98223;-79
2022/12/08 06:08:57;;;;;;;31.50;21.40;;;;;;;0.39;86.94;98340.47;86734;1296;22527;-78
2022/12/08 06:10:58;;;;;;;30.00;21.00;;;;;;;0.39;86.89;98352.05;86764;1303;25524;-78
2022/12/08 06:12:59;;;;;;;30.20;20.10;;;;;;;0.36;86.93;98359.20;86664;1285;98049;-78
2022/12/08 06:15:00;;;;;;;32.70;21.50;;;;;;;0.35;86.74;98356.45;86688;1296;22840;-78
2022/12/08 06:17:01;;;;;;;40.40;21.60;;;;;;;0.35;86.98;98357.30;86727;1312;100187;-79
2022/12/08 06:19:02;;;;;;;37.40;23.30;;;;;;;0.36;87.09;98363.86;86745;1297;24262;-78
2022/12/08 06:21:06;;;;;;;30.10;20.40;;;;;;;0.34;87.00;98363.02;86713;1290;23959;-78
2022/12/08 06:23:07;;;;;;;36.10;21.80;;;;;;;0.34;86.80;98361.30;86711;1289;99686;-78
2022/12/08 06:25:08;;;;;;;38.50;22.30;;;;;;;0.35;86.90;98359.38;86810;1290;25888;-78
2022/12/08 06:27:10;;;;;;;31.90;22.10;;;;;;;0.36;87.21;98360.23;87246;1297;25963;-79
2022/12/08 06:29:11;;;;;;;34.60;22.10;;;;;;;0.38;86.93;98359.68;87650;1296;99890;-79
2022/12/08 06:31:14;;;;;;;31.40;21.60;;;;;;;0.39;87.07;98357.58;87307;1310;22519;-80
2022/12/08 06:33:15;;;;;;;33.00;21.60;;;;;;;0.38;87.17;98358.98;86847;1296;22528;-79
2022/12/08 06:35:16;;;;;;;32.50;21.60;;;;;;;0.42;87.11;98366.86;86716;1293;99904;-79
2022/12/08 06:37:18;;;;;;;29.20;20.70;;;;;;;0.44;87.02;98372.16;86849;1298;25388;-78
2022/12/08 06:39:19;;;;;;;35.10;22.10;;;;;;;0.46;87.25;98374.74;86754;1287;22564;-78
2022/12/08 06:41:20;;;;;;;32.30;20.70;;;;;;;0.47;87.20;98372.46;86638;1296;98873;-79
2022/12/08 06:43:22;;;;;;;31.00;19.90;;;;;;;0.43;87.16;98373.74;86865;1290;22824;-79
2022/12/08 06:45:23;;;;;;;31.50;21.20;;;;;;;0.47;87.33;98375.24;86731;1296;24135;-78
2022/12/08 06:47:24;;;;;;;35.50;22.00;;;;;;;0.48;87.31;98376.77;86686;1297;99436;-79
2022/12/08 06:49:25;;;;;;;30.80;20.60;;;;;;;0.50;87.10;98373.64;86823;1303;25236;-79
2022/12/08 06:51:26;;;;;;;33.80;21.00;;;;;;;0.51;87.31;98367.91;86782;1283;23935;-79
2022/12/08 06:53:27;;;;;;;37.90;22.40;;;;;;;0.52;87.31;98371.70;86748;1311;98400;-79
2022/12/08 06:55:28;;;;;;;36.00;22.00;;;;;;;0.50;87.21;98373.98;86755;1296;23347;-78
2022/12/08 06:57:29;;;;;;;39.80;22.20;;;;;;;0.48;87.21;98376.43;86838;1290;22520;-78
2022/12/08 06:59:31;;;;;;;44.20;25.70;;;;;;;0.47;87.32;98375.93;86621;1300;98362;-78
2022/12/08 07:01:31;;;;;;;42.90;28.20;;;;;;;0.46;86.97;98375.61;86828;1296;25922;-79
2022/12/08 07:03:33;;;;;;;46.80;31.20;;;;;;;0.44;87.21;98377.70;86804;1312;22651;-79
2022/12/08 07:05:34;;;;;;;;;;;;;;;0.44;87.08;98376.85;86753;1295;98346;-79
2022/12/08 07:07:35;;;;;;;75.90;45.10;;;;;;;0.41;87.18;98380.35;86879;1302;23677;-77
2022/12/08 07:09:36;;;;;;;82.70;48.30;;;;;;;0.40;86.91;98385.90;86592;1290;22491;-77
2022/12/08 07:11:38;;;;;;;80.60;48.40;;;;;;;0.37;86.85;98381.29;86615;1311;99086;-78
2022/12/08 07:13:39;;;;;;;;;;;;;;;0.32;86.84;98383.44;86657;1286;22502;-76
2022/12/08 07:15:40;;;;;;;76.10;43.60;;;;;;;0.29;86.81;98385.40;86438;1289;22768;-76
2022/12/08 07:17:41;;;;;;;65.50;38.10;;;;;;;0.26;86.80;98386.14;86557;1289;99590;-74
2022/12/08 07:19:42;;;;;;;55.40;34.90;;;;;;;0.22;86.68;98385.14;86566;1290;24293;-75
2022/12/08 07:21:43;;;;;;;62.50;36.80;;;;;;;0.19;86.93;98384.70;86590;1311;22492;-75
2022/12/08 07:23:46;;;;;;;;;;;;;;;0.19;86.94;98383.50;86658;1288;98268;-75
2022/12/08 07:25:47;;;;;;;63.40;35.80;;;;;;;0.18;87.02;98382.98;87251;1294;22841;-75
2022/12/08 07:27:50;;;;;;;58.30;31.40;;;;;;;0.21;87.05;98387.44;87281;1300;22490;-77
2022/12/08 07:29:51;;;;;;;55.40;31.50;;;;;;;0.18;86.96;98388.16;87084;1282;99396;-76
2022/12/08 07:31:52;;;;;;;59.60;34.80;;;;;;;0.14;86.92;98385.63;87253;1293;25828;-76
2022/12/08 07:33:55;;;;;;;51.60;33.30;;;;;;;0.14;86.95;98390.13;87261;1292;24247;-74
2022/12/08 07:35:59;;;;;;;57.80;35.50;;;;;;;0.13;86.85;98392.02;87235;1288;99456;-74
2022/12/08 07:38:00;;;;;;;53.70;34.50;;;;;;;0.12;86.91;98389.98;87206;1287;22500;-75
2022/12/08 07:40:02;;;;;;;63.00;36.80;;;;;;;0.13;87.16;98389.63;87187;1306;24700;-75
2022/12/08 07:42:03;;;;;;;66.10;35.40;;;;;;;0.14;86.99;98388.05;86979;1299;98452;-75
2022/12/08 07:44:05;;;;;;;49.50;31.80;;;;;;;0.18;87.09;98390.58;87329;1283;23004;-74
2022/12/08 07:46:06;;;;;;;43.90;27.60;;;;;;;0.21;87.28;98385.17;87036;1294;22509;-75
2022/12/08 07:48:07;;;;;;;42.80;27.40;;;;;;;0.24;87.42;98382.19;87105;1295;100385;-75
2022/12/08 07:50:09;;;;;;;42.00;27.30;;;;;;;0.30;87.42;98382.61;87165;1288;22549;-74
2022/12/08 07:52:10;;;;;;;46.20;24.80;;;;;;;0.36;87.13;98385.27;86816;1314;22518;-75
2022/12/08 07:54:11;;;;;;;37.20;25.10;;;;;;;0.42;87.60;98386.39;86868;1295;98465;-75
2022/12/08 07:56:13;;;;;;;41.60;25.20;;;;;;;0.47;87.52;98384.92;86935;1289;22598;-75
2022/12/08 07:58:15;;;;;;;55.30;27.60;;;;;;;0.51;87.56;98389.69;86839;1295;22492;-75
2022/12/08 08:00:17;;;;;;;41.50;26.20;;;;;;;0.56;87.52;98393.23;86856;1286;99469;-75
2022/12/08 08:02:18;;;;;;;45.30;26.80;;;;;;;0.62;87.32;98393.30;86990;1311;22862;-75
2022/12/08 08:04:19;;;;;;;44.80;25.70;;;;;;;0.68;87.68;98393.55;86919;1290;23822;-74
2022/12/08 08:06:20;;;;;;;46.70;25.90;;;;;;;0.74;87.47;98392.39;87056;1286;98254;-76
2022/12/08 08:08:21;;;;;;;39.40;25.80;;;;;;;0.80;87.63;98389.52;86110;1290;22481;-74
2022/12/08 08:10:22;;;;;;;39.70;24.30;;;;;;;0.85;87.75;98391.67;87066;1302;22512;-75
2022/12/08 08:12:23;;;;;;;35.20;23.50;;;;;;;0.91;87.35;98390.88;87013;1294;98292;-75
2022/12/08 08:14:24;;;;;;;36.10;22.30;;;;;;;0.98;87.48;98388.33;86964;1289;23772;-74
2022/12/08 08:16:25;;;;;;;39.00;22.60;;;;;;;1.06;87.62;98391.64;87017;1297;22449;-75
2022/12/08 08:18:26;;;;;;;32.00;20.90;;;;;;;1.13;87.59;98387.00;87026;1303;98947;-75
2022/12/08 08:20:27;;;;;;;33.70;20.30;;;;;;;1.22;87.55;98389.77;87180;1294;23057;-75
2022/12/08 08:22:28;;;;;;;36.70;19.70;;;;;;;1.30;87.29;98389.95;87120;1295;22601;-75
2022/12/08 08:24:29;;;;;;;37.00;21.20;;;;;;;1.40;87.32;98390.27;87074;1285;98263;-74
2022/12/08 08:26:30;;;;;;;46.80;23.80;;;;;;;1.49;87.51;98387.48;86994;1296;22466;-75
2022/12/08 08:28:32;;;;;;;40.80;20.10;;;;;;;1.60;87.46;98383.80;87237;1294;22529;-76
2022/12/08 08:30:33;;;;;;;39.80;18.40;;;;;;;1.69;87.37;98382.90;87142;1303;98297;-75
2022/12/08 08:32:34;;;;;;;35.10;15.00;;;;;;;1.77;87.17;98380.48;87258;1289;22957;-76
2022/12/08 08:34:36;;;;;;;18.60;11.70;;;;;;;1.86;87.27;98380.64;87389;1295;22481;-74
2022/12/08 08:36:38;;;;;;;27.50;12.50;;;;;;;1.93;87.21;98378.22;87236;1302;99362;-75
2022/12/08 08:38:41;;;;;;;26.20;12.00;;;;;;;2.02;87.36;98376.11;87176;1282;22506;-76
2022/12/08 08:40:42;;;;;;;21.00;12.70;;;;;;;2.08;87.00;98378.41;87350;1297;23113;-79
2022/12/08 08:42:43;;;;;;;34.20;12.80;;;;;;;2.15;87.16;98382.05;87294;1280;99634;-75
2022/12/08 08:44:44;;;;;;;24.90;12.20;;;;;;;2.20;87.05;98381.23;87278;1296;24340;-75
2022/12/08 08:46:45;;;;;;;23.00;12.30;;;;;;;2.26;87.15;98382.98;87194;1296;22508;-75
2022/12/08 08:48:46;;;;;;;17.20;12.00;;;;;;;2.31;86.61;98380.27;87209;1299;98242;-76
2022/12/08 08:50:47;;;;;;;17.30;11.80;;;;;;;2.39;86.70;98381.14;87231;1290;22254;-76
2022/12/08 08:52:49;;;;;;;20.00;11.00;;;;;;;2.44;86.68;98378.04;87373;1292;22111;-76
2022/12/08 08:54:50;;;;;;;19.00;11.40;;;;;;;2.51;86.72;98381.70;87151;1299;100074;-76
2022/12/08 08:56:51;;;;;;;22.90;10.90;;;;;;;2.56;86.61;98379.14;87199;1292;22511;-76
2022/12/08 08:58:52;;;;;;;15.60;10.60;;;;;;;2.62;86.53;98378.83;87231;1302;22508;-75
2022/12/08 09:00:53;;;;;;;18.90;10.70;;;;;;;2.67;86.52;98379.88;87026;1290;99118;-75
2022/12/08 09:02:54;;;;;;;20.00;11.40;;;;;;;2.74;86.82;98381.63;87359;1311;22439;-75
2022/12/08 09:04:55;;;;;;;15.90;11.00;;;;;;;2.79;86.29;98381.14;87097;1299;23294;-75
2022/12/08 09:06:56;;;;;;;14.60;11.10;;;;;;;2.81;86.38;98377.11;87245;1293;98796;-76
2022/12/08 09:08:58;;;;;;;14.70;10.60;;;;;;;2.83;85.94;98378.25;87327;1296;22496;-76
2022/12/08 09:10:59;;;;;;;23.00;11.00;;;;;;;2.86;86.18;98373.66;87344;1297;25361;-76
2022/12/08 09:13:00;;;;;;;17.60;10.20;;;;;;;2.88;86.18;98374.48;87229;1302;98248;-76
2022/12/08 09:15:01;;;;;;;13.20;10.40;;;;;;;2.88;86.09;98377.08;87535;1299;22523;-75
2022/12/08 09:17:02;;;;;;;22.50;9.70;;;;;;;2.89;86.21;98370.63;87594;1295;22432;-75
2022/12/08 09:19:03;;;;;;;15.40;10.50;;;;;;;2.94;86.14;98368.45;87400;1295;97984;-76
2022/12/08 09:21:07;;;;;;;16.80;11.50;;;;;;;2.98;86.13;98367.98;87558;1290;22624;-75
2022/12/08 09:23:08;;;;;;;14.80;10.80;;;;;;;3.01;86.13;98363.39;87558;1294;98539;-74
2022/12/08 09:25:09;;;;;;;13.80;10.40;;;;;;;3.04;86.16;98361.23;87525;1296;25332;-76
2022/12/08 09:27:10;;;;;;;15.70;10.80;;;;;;;3.07;85.90;98359.60;87185;1306;22513;-75
2022/12/08 09:29:13;;;;;;;25.20;11.40;;;;;;;3.07;85.97;98359.23;87393;1290;99720;-76
2022/12/08 09:31:16;;;;;;;19.00;9.90;;;;;;;3.08;85.63;98361.46;87399;1297;22535;-74
2022/12/08 09:33:17;;;;;;;13.60;10.10;;;;;;;3.08;85.91;98355.89;87508;1297;24376;-76
2022/12/08 09:35:18;;;;;;;13.10;10.40;;;;;;;3.10;85.82;98355.69;87367;1306;98475;-75
2022/12/08 09:37:19;;;;;;;16.30;9.80;;;;;;;3.12;85.84;98354.39;87402;1288;22621;-76
2022/12/08 09:39:20;;;;;;;15.30;10.00;;;;;;;3.13;85.97;98352.96;87531;1296;23366;-76
2022/12/08 09:41:30;;;;;;;14.00;9.90;;;;;;;3.15;85.67;98350.67;87137;1296;98481;-74
2022/12/08 09:43:59;;;;;;;14.70;10.10;;;;;;;3.16;86.01;98350.45;87464;1285;22532;-75
2022/12/08 09:46:03;;;;;;;15.50;9.40;;;;;;;3.20;85.85;98342.02;87422;1296;22513;-75
2022/12/08 09:48:38;;;;;;;13.50;9.40;;;;;;;3.23;85.86;98342.61;87483;1295;98328;-75